createdAt,value
2022-11-03T00:02:46.825Z,7.31
2022-11-03T00:05:54.951Z,7.30
2022-11-03T00:08:47.387Z,7.28
2022-11-03T00:11:39.302Z,7.27
2022-11-03T00:14:31.374Z,7.25
2022-11-03T00:17:20.627Z,7.23
2022-11-03T00:20:12.535Z,7.22
2022-11-03T00:23:01.949Z,7.21
2022-11-03T00:25:51.665Z,7.20
2022-11-03T00:28:42.205Z,7.18
2022-11-03T00:31:45.257Z,7.16
2022-11-03T00:34:38.566Z,7.13
2022-11-03T00:42:06.767Z,7.08
2022-11-03T00:45:39.026Z,7.06
2022-11-03T00:49:41.470Z,7.05
2022-11-03T00:52:34.709Z,7.03
2022-11-03T00:55:24.226Z,7.01
2022-11-03T00:58:13.921Z,7.00
2022-11-03T01:01:06.877Z,6.98
2022-11-03T01:04:15.953Z,6.96
2022-11-03T01:07:08.389Z,6.93
2022-11-03T01:09:57.501Z,6.91
2022-11-03T01:12:49.242Z,6.90
2022-11-03T01:15:42.012Z,6.88
2022-11-03T01:18:32.248Z,6.86
2022-11-03T01:21:21.886Z,6.84
2022-11-03T01:24:17.386Z,6.81
2022-11-03T01:27:07.296Z,6.80
2022-11-03T01:29:59.408Z,6.77
2022-11-03T01:32:48.940Z,6.74
2022-11-03T01:35:38.281Z,6.74
2022-11-03T01:38:31.272Z,6.73
2022-11-03T01:41:23.097Z,6.72
2022-11-03T01:44:33.899Z,6.72
2022-11-03T01:47:31.924Z,6.72
2022-11-03T01:50:22.374Z,6.72
2022-11-03T01:53:15.916Z,6.72
2022-11-03T01:56:08.071Z,6.75
2022-11-03T01:59:08.004Z,6.77
2022-11-03T02:02:05.305Z,6.77
2022-11-03T02:05:16.049Z,6.77
2022-11-03T02:08:25.682Z,6.76
2022-11-03T02:11:37.473Z,6.74
2022-11-03T02:14:27.294Z,6.73
2022-11-03T02:17:18.830Z,6.71
2022-11-03T02:20:12.430Z,6.70
2022-11-03T02:23:23.934Z,6.70
2022-11-03T02:31:06.347Z,6.71
2022-11-03T02:34:24.294Z,6.68
2022-11-03T02:43:14.847Z,6.60
2022-11-03T02:46:32.136Z,6.55
2022-11-03T02:59:32.303Z,6.41
2022-11-03T03:08:29.218Z,6.30
2022-11-03T03:11:42.535Z,6.28
2022-11-03T03:14:35.923Z,6.31
2022-11-03T03:17:31.442Z,6.35
2022-11-03T03:20:26.830Z,6.37
2022-11-03T03:23:20.636Z,6.41
2022-11-03T03:26:15.272Z,6.45
2022-11-03T03:29:11.056Z,6.48
2022-11-03T03:32:03.894Z,6.49
2022-11-03T03:34:54.864Z,6.51
2022-11-03T03:37:46.823Z,6.54
2022-11-03T03:40:39.389Z,6.53
2022-11-03T03:43:32.032Z,6.56
2022-11-03T03:46:24.376Z,6.57
2022-11-03T03:49:13.959Z,6.56
2022-11-03T03:52:04.242Z,6.53
2022-11-03T03:54:54.645Z,6.50
2022-11-03T03:57:44.889Z,6.47
2022-11-03T04:00:34.454Z,6.47
2022-11-03T04:03:25.935Z,6.47
2022-11-03T04:06:15.201Z,6.45
2022-11-03T04:09:04.717Z,6.44
2022-11-03T04:12:14.707Z,6.46
2022-11-03T04:15:24.353Z,6.47
2022-11-03T04:18:33.043Z,6.47
2022-11-03T04:21:40.849Z,6.46
2022-11-03T04:24:30.374Z,6.46
2022-11-03T04:27:30.745Z,6.45
2022-11-03T04:30:24.419Z,6.45
2022-11-03T04:33:16.394Z,6.47
2022-11-03T04:36:15.303Z,6.50
2022-11-03T04:39:18.682Z,6.53
2022-11-03T04:42:16.295Z,6.54
2022-11-03T04:45:16.330Z,6.55
2022-11-03T04:48:12.982Z,6.53
2022-11-03T04:51:11.183Z,6.50
2022-11-03T04:54:03.704Z,6.48
2022-11-03T04:56:52.940Z,6.46
2022-11-03T04:59:45.798Z,6.43
2022-11-03T05:02:34.901Z,6.43
2022-11-03T05:05:26.115Z,6.42
2022-11-03T05:08:18.652Z,6.43
2022-11-03T05:11:15.429Z,6.43
2022-11-03T05:14:14.894Z,6.42
2022-11-03T05:17:15.668Z,6.42
2022-11-03T05:20:06.570Z,6.43
2022-11-03T05:22:55.885Z,6.44
2022-11-03T05:25:47.610Z,6.44
2022-11-03T05:28:40.897Z,6.42
2022-11-03T05:31:32.186Z,6.41
2022-11-03T05:34:31.836Z,6.41
2022-11-03T05:37:27.518Z,6.40
2022-11-03T05:40:23.133Z,6.40
2022-11-03T05:43:14.825Z,6.38
2022-11-03T05:46:11.789Z,6.37
2022-11-03T05:49:02.828Z,6.37
2022-11-03T05:51:52.310Z,6.36
2022-11-03T05:54:42.013Z,6.34
2022-11-03T05:57:36.127Z,6.32
2022-11-03T06:00:48.100Z,6.29
2022-11-03T06:03:39.148Z,6.26
2022-11-03T06:06:35.487Z,6.21
2022-11-03T06:09:26.926Z,6.16
2022-11-03T06:12:49.071Z,6.12
2022-11-03T06:15:46.717Z,6.07
2022-11-03T06:19:08.476Z,6.05
2022-11-03T06:22:29.876Z,6.04
2022-11-03T06:25:49.198Z,6.04
2022-11-03T06:28:42.679Z,6.07
2022-11-03T06:35:33.141Z,6.14
2022-11-03T06:38:31.086Z,6.21
2022-11-03T06:41:46.399Z,6.24
2022-11-03T06:44:48.493Z,6.29
2022-11-03T06:47:51.510Z,6.32
2022-11-03T06:50:46.542Z,6.34
2022-11-03T06:53:37.536Z,6.35
2022-11-03T06:56:31.004Z,6.34
2022-11-03T06:59:20.671Z,6.33
2022-11-03T07:02:33.755Z,6.34
2022-11-03T07:05:26.325Z,6.33
2022-11-03T07:08:23.494Z,6.33
2022-11-03T07:11:19.136Z,6.32
2022-11-03T07:14:22.022Z,6.33
2022-11-03T07:17:35.431Z,6.32
2022-11-03T07:20:50.721Z,6.32
2022-11-03T07:23:57.230Z,6.32
2022-11-03T07:26:47.361Z,6.31
2022-11-03T07:29:40.733Z,6.31
2022-11-03T07:32:35.909Z,6.32
2022-11-03T07:36:08.400Z,6.34
2022-11-03T07:39:23.940Z,6.38
2022-11-03T07:42:28.818Z,6.41
2022-11-03T07:45:41.281Z,6.44
2022-11-03T07:48:36.264Z,6.45
2022-11-03T07:51:48.104Z,6.49
2022-11-03T07:54:41.407Z,6.51
2022-11-03T07:57:37.713Z,6.55
2022-11-03T08:00:35.664Z,6.57
2022-11-03T08:03:55.113Z,6.59
2022-11-03T08:06:48.452Z,6.62
2022-11-03T08:09:40.392Z,6.64
2022-11-03T08:12:33.711Z,6.67
2022-11-03T08:15:23.979Z,6.70
2022-11-03T08:18:14.676Z,6.73
2022-11-03T08:21:09.799Z,6.78
2022-11-03T08:24:05.823Z,6.83
2022-11-03T08:27:10.594Z,6.87
2022-11-03T08:30:40.060Z,6.91
2022-11-03T08:33:42.445Z,6.97
2022-11-03T08:37:04.379Z,7.03
2022-11-03T08:40:10.091Z,7.10
2022-11-03T08:43:19.900Z,7.14
2022-11-03T08:46:17.746Z,7.20
2022-11-03T08:49:32.134Z,7.27
2022-11-03T08:52:31.236Z,7.34
2022-11-03T08:55:26.768Z,7.40
2022-11-03T08:58:19.420Z,7.47
2022-11-03T09:01:21.198Z,7.53
2022-11-03T09:04:18.915Z,7.59
2022-11-03T09:07:10.839Z,7.64
2022-11-03T09:13:10.303Z,7.77
2022-11-03T09:16:05.091Z,7.84
2022-11-03T09:19:05.794Z,7.90
2022-11-03T09:22:02.907Z,7.97
2022-11-03T09:24:55.246Z,8.04
2022-11-03T09:27:48.593Z,8.12
2022-11-03T09:30:40.329Z,8.19
2022-11-03T09:33:40.665Z,8.24
2022-11-03T09:36:53.321Z,8.30
2022-11-03T09:39:46.064Z,8.34
2022-11-03T09:42:41.949Z,8.40
2022-11-03T09:45:34.611Z,8.48
2022-11-03T09:48:24.800Z,8.54
2022-11-03T09:51:25.415Z,8.59
2022-11-03T09:54:17.142Z,8.66
2022-11-03T09:57:14.733Z,8.73
2022-11-03T10:00:18.043Z,8.80
2022-11-03T10:03:10.626Z,8.88
2022-11-03T10:06:00.362Z,8.96
2022-11-03T10:08:50.259Z,9.03
2022-11-03T10:12:09.527Z,9.10
2022-11-03T10:14:59.730Z,9.19
2022-11-03T10:17:50.033Z,9.27
2022-11-03T10:20:40.124Z,9.35
2022-11-03T10:23:30.248Z,9.43
2022-11-03T10:27:33.779Z,9.51
2022-11-03T10:30:23.406Z,9.63
2022-11-03T10:33:29.822Z,9.72
2022-11-03T10:36:39.213Z,9.83
2022-11-03T10:39:35.274Z,9.94
2022-11-03T10:42:35.802Z,10.03
2022-11-03T10:45:26.088Z,10.13
2022-11-03T10:52:29.422Z,10.40
2022-11-03T10:55:23.881Z,10.72
2022-11-03T10:58:14.915Z,13.13
2022-11-03T11:01:05.824Z,16.51
2022-11-03T11:03:55.550Z,19.48
2022-11-03T11:06:52.184Z,22.16
2022-11-03T11:09:41.598Z,24.59
2022-11-03T11:12:31.272Z,26.58
2022-11-03T11:16:06.737Z,28.44
2022-11-03T11:19:44.693Z,30.21
2022-11-03T11:22:55.294Z,31.63
2022-11-03T11:26:18.040Z,32.55
2022-11-03T11:29:45.397Z,33.23
2022-11-03T11:32:58.388Z,33.49
2022-11-03T11:36:20.996Z,33.52
2022-11-03T11:39:12.487Z,33.03
2022-11-03T11:42:13.273Z,32.27
2022-11-03T11:45:11.496Z,31.59
2022-11-03T11:48:19.093Z,31.05
2022-11-03T11:51:13.272Z,30.53
2022-11-03T11:54:34.106Z,29.70
2022-11-03T11:57:24.457Z,28.79
2022-11-03T12:00:22.269Z,27.98
2022-11-03T12:03:16.329Z,26.90
2022-11-03T12:06:30.230Z,25.58
2022-11-03T12:09:42.108Z,24.03
2022-11-03T12:13:28.605Z,22.34
2022-11-03T12:17:05.274Z,20.83
2022-11-03T12:19:56.277Z,19.58
2022-11-03T12:22:46.843Z,18.57
2022-11-03T12:25:40.033Z,17.72
2022-11-03T12:28:34.831Z,17.03
2022-11-03T12:31:24.152Z,16.47
2022-11-03T12:34:13.672Z,15.95
2022-11-03T12:37:03.201Z,15.47
2022-11-03T12:39:52.581Z,15.00
2022-11-03T12:42:42.158Z,14.59
2022-11-03T12:45:31.613Z,14.25
2022-11-03T12:48:21.208Z,13.98
2022-11-03T12:51:14.932Z,13.79
2022-11-03T12:54:09.730Z,13.63
2022-11-03T12:57:00.056Z,13.51
2022-11-03T12:59:50.880Z,13.42
2022-11-03T13:02:40.313Z,13.29
2022-11-03T13:05:39.403Z,13.17
2022-11-03T13:08:28.895Z,13.08
2022-11-03T13:11:36.785Z,13.01
2022-11-03T13:14:26.427Z,13.00
2022-11-03T13:17:16.038Z,13.09
2022-11-03T13:20:07.998Z,13.23
2022-11-03T13:23:00.657Z,13.44
2022-11-03T13:25:57.576Z,13.63
2022-11-03T13:28:47.589Z,13.79
2022-11-03T13:31:37.156Z,13.85
2022-11-03T13:34:26.544Z,13.75
2022-11-03T13:37:15.926Z,13.55
2022-11-03T13:40:08.308Z,13.45
2022-11-03T13:42:57.620Z,13.33
2022-11-03T13:45:46.992Z,13.25
2022-11-03T13:51:46.008Z,12.90
2022-11-03T14:00:55.063Z,12.32
2022-11-03T14:06:53.980Z,12.09
2022-11-03T14:09:43.446Z,11.96
2022-11-03T14:12:34.191Z,11.86
2022-11-03T14:15:23.558Z,11.78
2022-11-03T14:18:15.900Z,11.70
2022-11-03T14:21:07.045Z,11.63
2022-11-03T14:24:02.496Z,11.58
2022-11-03T14:26:53.337Z,11.54
2022-11-03T14:30:16.605Z,11.52
2022-11-03T14:34:04.788Z,11.50
2022-11-03T14:37:02.034Z,11.50
2022-11-03T14:40:56.312Z,11.48
2022-11-03T14:44:40.430Z,11.48
2022-11-03T14:51:23.225Z,11.43
2022-11-03T14:54:23.172Z,11.41
2022-11-03T14:57:16.255Z,11.36
2022-11-03T15:00:35.108Z,11.33
2022-11-03T15:03:26.967Z,11.27
2022-11-03T15:06:19.486Z,11.19
2022-11-03T15:09:10.108Z,11.11
2022-11-03T15:12:20.046Z,11.04
2022-11-03T15:15:12.928Z,10.98
2022-11-03T15:18:07.669Z,10.95
2022-11-03T15:21:00.152Z,10.91
2022-11-03T15:26:58.844Z,10.83
2022-11-03T15:29:48.286Z,10.79
2022-11-03T15:32:38.205Z,10.75
2022-11-03T15:35:27.795Z,10.73
2022-11-03T15:38:18.226Z,10.70
2022-11-03T15:41:19.251Z,10.66
2022-11-03T15:44:09.476Z,10.57
2022-11-03T15:46:58.777Z,10.48
2022-11-03T15:49:50.079Z,10.40
2022-11-03T15:53:14.981Z,10.35
2022-11-03T15:56:22.404Z,10.30
2022-11-03T15:59:19.651Z,10.25
2022-11-03T16:02:35.111Z,10.20
2022-11-03T16:05:28.831Z,10.15
2022-11-03T16:08:18.229Z,10.08
2022-11-03T16:11:09.226Z,10.03
2022-11-03T16:13:59.400Z,9.97
2022-11-03T16:17:30.711Z,9.91
2022-11-03T16:20:34.585Z,9.84
2022-11-03T16:23:23.727Z,9.78
2022-11-03T16:26:13.320Z,9.74
2022-11-03T16:29:03.094Z,9.71
2022-11-03T16:31:52.450Z,9.70
2022-11-03T16:34:45.063Z,9.69
2022-11-03T16:37:37.474Z,9.67
2022-11-03T16:40:27.486Z,9.63
2022-11-03T16:43:17.068Z,9.60
2022-11-03T16:46:07.024Z,9.56
2022-11-03T16:51:50.702Z,9.48
2022-11-03T16:54:40.503Z,9.45
2022-11-03T16:57:30.672Z,9.42
2022-11-03T17:00:24.155Z,9.38
2022-11-03T17:03:14.131Z,9.36
2022-11-03T17:06:03.616Z,9.35
2022-11-03T17:08:53.976Z,9.33
2022-11-03T17:11:43.770Z,9.32
2022-11-03T17:14:35.623Z,9.30
2022-11-03T17:17:29.547Z,9.29
2022-11-03T17:20:19.553Z,9.28
2022-11-03T17:23:09.343Z,9.25
2022-11-03T17:26:45.561Z,9.24
2022-11-03T17:29:37.996Z,9.23
2022-11-03T17:32:30.827Z,9.23
2022-11-03T17:35:23.579Z,9.24
2022-11-03T17:38:17.137Z,9.24
2022-11-03T17:41:09.001Z,9.20
2022-11-03T17:44:15.202Z,9.14
2022-11-03T17:47:06.062Z,9.07
2022-11-03T17:50:00.118Z,9.01
2022-11-03T17:52:51.385Z,8.96
2022-11-03T17:56:31.125Z,8.89
2022-11-03T17:59:21.878Z,8.82
2022-11-03T18:02:14.140Z,8.77
2022-11-03T18:05:21.442Z,8.71
2022-11-03T18:08:14.761Z,8.64
2022-11-03T18:11:09.630Z,8.59
2022-11-03T18:13:59.970Z,8.54
2022-11-03T18:16:51.371Z,8.50
2022-11-03T18:19:43.248Z,8.47
2022-11-03T18:22:40.790Z,8.45
2022-11-03T18:25:33.190Z,8.43
2022-11-03T18:28:24.135Z,8.42
2022-11-03T18:34:47.683Z,8.35
2022-11-03T18:37:37.833Z,8.31
2022-11-03T18:40:28.725Z,8.26
2022-11-03T18:43:20.094Z,8.22
2022-11-03T18:46:09.647Z,8.18
2022-11-03T18:48:59.155Z,8.16
2022-11-03T18:51:50.715Z,8.12
2022-11-03T18:54:43.369Z,8.07
2022-11-03T18:57:41.028Z,8.02
2022-11-03T19:00:36.654Z,7.98
2022-11-03T19:03:28.135Z,7.93
2022-11-03T19:06:17.941Z,7.89
2022-11-03T19:09:09.734Z,7.85
2022-11-03T19:12:03.661Z,7.80
2022-11-03T19:14:54.268Z,7.76
2022-11-03T19:17:49.861Z,7.71
2022-11-03T19:20:42.759Z,7.65
2022-11-03T19:23:58.532Z,7.60
2022-11-03T19:26:57.956Z,7.57
2022-11-03T19:29:50.475Z,7.56
2022-11-03T19:32:46.119Z,7.55
2022-11-03T19:35:36.415Z,7.53
2022-11-03T19:38:26.743Z,7.51
2022-11-03T19:41:36.016Z,7.47
2022-11-03T19:44:25.736Z,7.43
2022-11-03T19:47:18.085Z,7.40
2022-11-03T19:50:16.697Z,7.37
2022-11-03T19:53:07.447Z,7.33
2022-11-03T19:55:58.009Z,7.30
2022-11-03T19:58:47.463Z,7.27
2022-11-03T20:01:37.115Z,7.23
2022-11-03T20:04:26.675Z,7.20
2022-11-03T20:07:19.762Z,7.17
2022-11-03T20:10:16.862Z,7.13
2022-11-03T20:13:22.457Z,7.11
2022-11-03T20:16:17.146Z,7.09
2022-11-03T20:19:06.353Z,7.07
2022-11-03T20:21:55.971Z,7.06
2022-11-03T20:24:47.968Z,7.06
2022-11-03T20:27:37.378Z,7.06
2022-11-03T20:30:28.654Z,7.07
2022-11-03T20:33:20.579Z,7.07
2022-11-03T20:36:15.957Z,7.07
2022-11-03T20:39:05.895Z,7.07
2022-11-03T20:41:56.897Z,7.05
2022-11-03T20:44:50.243Z,7.04
2022-11-03T20:47:47.176Z,7.02
2022-11-03T20:50:38.909Z,7.00
2022-11-03T20:53:29.612Z,6.97
2022-11-03T20:56:21.811Z,6.95
2022-11-03T21:02:09.343Z,6.88
2022-11-03T21:05:00.614Z,6.84
2022-11-03T21:07:51.863Z,6.80
2022-11-03T21:10:50.952Z,6.75
2022-11-03T21:13:52.397Z,6.71
2022-11-03T21:17:04.288Z,6.67
2022-11-03T21:20:07.867Z,6.63
2022-11-03T21:22:59.765Z,6.60
2022-11-03T21:25:54.479Z,6.56
2022-11-03T21:28:45.431Z,6.52
2022-11-03T21:31:37.641Z,6.47
2022-11-03T21:34:29.015Z,6.44
2022-11-03T21:37:23.130Z,6.39
2022-11-03T21:40:15.477Z,6.35
2022-11-03T21:43:24.073Z,6.32
2022-11-03T21:46:17.344Z,6.28
2022-11-03T21:49:26.747Z,6.24
2022-11-03T21:52:18.943Z,6.20
2022-11-03T21:55:09.776Z,6.17
2022-11-03T21:58:01.111Z,6.14
2022-11-03T22:00:50.570Z,6.10
2022-11-03T22:03:40.262Z,6.07
2022-11-03T22:06:29.879Z,6.02
2022-11-03T22:09:19.616Z,5.99
2022-11-03T22:12:09.743Z,5.96
2022-11-03T22:15:17.350Z,5.93
2022-11-03T22:18:08.357Z,5.90
2022-11-03T22:21:17.188Z,5.86
2022-11-03T22:24:27.203Z,5.83
2022-11-03T22:27:17.112Z,5.79
2022-11-03T22:30:26.890Z,5.76
2022-11-03T22:33:16.377Z,5.71
2022-11-03T22:36:25.086Z,5.69
2022-11-03T22:39:37.592Z,5.67
2022-11-03T22:42:48.253Z,5.64
2022-11-03T22:45:53.857Z,5.60
2022-11-03T22:48:43.937Z,5.55
2022-11-03T22:51:33.523Z,5.51
2022-11-03T22:54:24.149Z,5.48
2022-11-03T22:57:13.765Z,5.45
2022-11-03T23:00:06.727Z,5.43
2022-11-03T23:02:57.731Z,5.40
2022-11-03T23:05:47.540Z,5.37
2022-11-03T23:08:39.034Z,5.35
2022-11-03T23:11:32.132Z,5.33
2022-11-03T23:14:22.593Z,5.30
2022-11-03T23:17:12.150Z,5.26
2022-11-03T23:20:19.932Z,5.24
2022-11-03T23:23:31.730Z,5.22
2022-11-03T23:26:26.927Z,5.19
2022-11-03T23:29:16.872Z,5.16
2022-11-03T23:32:06.793Z,5.14
2022-11-03T23:34:56.329Z,5.12
2022-11-03T23:37:46.155Z,5.10
2022-11-03T23:40:35.858Z,5.08
2022-11-03T23:43:29.757Z,5.08
2022-11-03T23:46:40.320Z,5.07
2022-11-03T23:49:29.914Z,5.05
2022-11-03T23:52:19.466Z,5.04
2022-11-03T23:55:09.887Z,5.03
2022-11-03T23:58:22.058Z,5.01
